createdAt,value
2023-01-18T00:01:15.665Z,5.42
2023-01-18T00:03:42.729Z,5.43
2023-01-18T00:06:10.738Z,5.44
2023-01-18T00:08:38.864Z,5.45
2023-01-18T00:11:12.743Z,5.44
2023-01-18T00:13:39.884Z,5.47
2023-01-18T00:16:08.982Z,5.46
2023-01-18T00:18:36.147Z,5.44
2023-01-18T00:21:08.053Z,5.41
2023-01-18T00:23:35.576Z,5.41
2023-01-18T00:26:08.222Z,5.39
2023-01-18T00:28:35.702Z,5.40
2023-01-18T00:31:09.378Z,5.43
2023-01-18T00:33:36.320Z,5.43
2023-01-18T00:36:04.271Z,5.40
2023-01-18T00:38:31.256Z,5.40
2023-01-18T00:40:58.096Z,5.40
2023-01-18T00:43:40.226Z,5.40
2023-01-18T00:46:12.499Z,5.39
2023-01-18T00:48:40.121Z,5.38
2023-01-18T00:51:12.250Z,5.38
2023-01-18T00:53:39.656Z,5.37
2023-01-18T00:56:08.751Z,5.36
2023-01-18T00:58:37.607Z,5.36
2023-01-18T01:01:08.263Z,5.35
2023-01-18T01:03:55.046Z,5.38
2023-01-18T01:06:44.504Z,5.34
2023-01-18T01:09:20.387Z,5.30
2023-01-18T01:12:07.209Z,5.27
2023-01-18T01:14:55.290Z,5.28
2023-01-18T01:17:40.664Z,5.28
2023-01-18T01:20:27.116Z,5.28
2023-01-18T01:23:12.656Z,5.27
2023-01-18T01:25:58.122Z,5.24
2023-01-18T01:28:25.089Z,5.24
2023-01-18T01:30:52.106Z,5.23
2023-01-18T01:33:19.589Z,5.23
2023-01-18T01:35:46.482Z,5.25
2023-01-18T01:38:13.243Z,5.20
2023-01-18T01:40:40.106Z,5.17
2023-01-18T01:43:12.978Z,5.16
2023-01-18T01:45:40.076Z,5.14
2023-01-18T01:48:07.633Z,5.11
2023-01-18T01:50:39.979Z,5.08
2023-01-18T01:53:07.086Z,5.05
2023-01-18T01:55:36.808Z,5.04
2023-01-18T01:58:26.968Z,5.03
2023-01-18T02:00:54.338Z,5.05
2023-01-18T02:03:22.825Z,5.04
2023-01-18T02:05:54.159Z,5.02
2023-01-18T02:08:23.962Z,5.03
2023-01-18T02:10:52.301Z,5.02
2023-01-18T02:13:21.644Z,5.02
2023-01-18T02:16:07.313Z,4.98
2023-01-18T02:18:54.654Z,4.94
2023-01-18T02:21:37.025Z,4.93
2023-01-18T02:24:31.698Z,4.90
2023-01-18T02:27:15.338Z,4.88
2023-01-18T02:30:28.597Z,4.88
2023-01-18T02:33:01.531Z,4.86
2023-01-18T02:36:00.988Z,4.86
2023-01-18T02:38:44.928Z,4.87
2023-01-18T02:42:06.888Z,4.88
2023-01-18T02:44:57.404Z,4.85
2023-01-18T02:47:24.880Z,4.82
2023-01-18T02:49:51.543Z,4.79
2023-01-18T02:52:40.223Z,4.80
2023-01-18T02:55:30.754Z,4.77
2023-01-18T02:58:10.185Z,4.77
2023-01-18T03:00:40.946Z,4.77
2023-01-18T03:03:10.961Z,4.79
2023-01-18T03:05:38.418Z,4.79
2023-01-18T03:08:26.406Z,4.80
2023-01-18T03:11:01.379Z,4.78
2023-01-18T03:13:40.552Z,4.77
2023-01-18T03:16:14.836Z,4.77
2023-01-18T03:19:06.475Z,4.75
2023-01-18T03:21:47.556Z,4.73
2023-01-18T03:24:16.454Z,4.73
2023-01-18T03:26:47.090Z,4.70
2023-01-18T03:29:33.079Z,4.74
2023-01-18T03:32:27.793Z,4.70
2023-01-18T03:35:10.988Z,4.70
2023-01-18T03:37:40.853Z,4.69
2023-01-18T03:40:23.871Z,4.66
2023-01-18T03:42:56.172Z,4.65
2023-01-18T03:45:40.112Z,4.66
2023-01-18T03:48:08.665Z,4.69
2023-01-18T03:50:53.647Z,4.71
2023-01-18T03:53:42.417Z,4.71
2023-01-18T03:56:11.941Z,4.71
2023-01-18T03:58:39.751Z,4.75
2023-01-18T04:01:06.736Z,4.73
2023-01-18T04:03:34.678Z,4.73
2023-01-18T04:06:03.056Z,4.76
2023-01-18T04:08:30.017Z,4.76
2023-01-18T04:10:56.771Z,4.80
2023-01-18T04:13:23.643Z,4.76
2023-01-18T04:15:50.555Z,4.80
2023-01-18T04:18:17.460Z,4.79
2023-01-18T04:20:44.135Z,4.78
2023-01-18T04:23:10.987Z,4.79
2023-01-18T04:25:40.871Z,4.78
2023-01-18T04:28:07.963Z,4.79
2023-01-18T04:30:35.000Z,4.77
2023-01-18T04:33:02.139Z,4.77
2023-01-18T04:35:29.103Z,4.80
2023-01-18T04:37:55.891Z,4.81
2023-01-18T04:40:22.577Z,4.80
2023-01-18T04:42:53.778Z,4.81
2023-01-18T04:45:20.928Z,4.82
2023-01-18T04:47:47.613Z,4.82
2023-01-18T04:50:14.444Z,4.82
2023-01-18T04:52:41.296Z,4.81
2023-01-18T04:55:08.706Z,4.80
2023-01-18T04:57:35.483Z,4.78
2023-01-18T05:00:02.351Z,4.75
2023-01-18T05:02:29.127Z,4.78
2023-01-18T05:04:56.208Z,4.80
2023-01-18T05:07:26.840Z,4.82
2023-01-18T05:09:53.588Z,4.85
2023-01-18T05:12:20.340Z,4.82
2023-01-18T05:14:47.246Z,4.78
2023-01-18T05:17:14.198Z,4.78
2023-01-18T05:19:41.203Z,4.78
2023-01-18T05:22:08.073Z,4.78
2023-01-18T05:24:34.892Z,4.77
2023-01-18T05:27:01.688Z,4.79
2023-01-18T05:29:28.597Z,4.80
2023-01-18T05:31:55.420Z,4.81
2023-01-18T05:34:22.636Z,4.83
2023-01-18T05:36:49.450Z,4.82
2023-01-18T05:39:16.441Z,4.83
2023-01-18T05:41:43.645Z,4.85
2023-01-18T05:44:11.253Z,4.87
2023-01-18T05:46:37.978Z,4.86
2023-01-18T05:49:04.677Z,4.29
2023-01-18T05:51:31.493Z,3.58
2023-01-18T05:53:59.051Z,3.15
2023-01-18T05:56:26.269Z,2.92
2023-01-18T05:58:53.582Z,2.74
2023-01-18T06:01:22.843Z,2.58
2023-01-18T06:03:49.783Z,2.46
2023-01-18T06:06:17.900Z,2.38
2023-01-18T06:08:45.100Z,2.46
2023-01-18T06:11:11.811Z,2.52
2023-01-18T06:13:38.716Z,2.59
2023-01-18T06:16:05.903Z,2.65
2023-01-18T06:18:33.541Z,2.71
2023-01-18T06:21:01.859Z,2.75
2023-01-18T06:23:30.134Z,2.80
2023-01-18T06:25:57.006Z,2.55
2023-01-18T06:28:23.866Z,2.38
2023-01-18T06:30:53.902Z,2.31
2023-01-18T06:33:20.725Z,2.26
2023-01-18T06:35:47.300Z,2.23
2023-01-18T06:38:14.827Z,2.14
2023-01-18T06:40:41.668Z,2.07
2023-01-18T06:43:10.326Z,2.04
2023-01-18T06:45:37.487Z,2.00
2023-01-18T06:48:04.318Z,1.97
2023-01-18T06:50:31.156Z,1.96
2023-01-18T06:52:58.286Z,1.88
2023-01-18T06:55:25.416Z,1.83
2023-01-18T06:57:52.264Z,1.79
2023-01-18T07:00:19.712Z,1.74
2023-01-18T07:02:46.650Z,1.68
2023-01-18T07:05:13.274Z,1.65
2023-01-18T07:07:40.092Z,1.60
2023-01-18T07:10:07.275Z,1.60
2023-01-18T07:12:34.196Z,1.52
2023-01-18T07:15:09.894Z,1.53
2023-01-18T07:17:47.210Z,1.51
2023-01-18T07:20:16.219Z,1.47
2023-01-18T07:22:43.223Z,1.40
2023-01-18T07:25:13.367Z,1.33
2023-01-18T07:27:43.309Z,1.40
2023-01-18T07:30:14.195Z,1.44
2023-01-18T07:32:48.725Z,1.51
2023-01-18T07:35:17.250Z,1.47
2023-01-18T07:37:49.656Z,1.31
2023-01-18T07:40:17.237Z,1.27
2023-01-18T07:42:44.714Z,1.24
2023-01-18T07:45:13.784Z,1.30
2023-01-18T07:47:43.259Z,1.41
2023-01-18T07:50:10.980Z,1.56
2023-01-18T07:52:37.776Z,1.54
2023-01-18T07:55:06.768Z,1.54
2023-01-18T07:57:33.639Z,1.55
2023-01-18T08:00:00.780Z,1.60
2023-01-18T08:02:27.752Z,1.64
2023-01-18T08:04:54.773Z,1.67
2023-01-18T08:07:21.623Z,1.71
2023-01-18T08:09:48.336Z,1.62
2023-01-18T08:12:18.154Z,1.48
2023-01-18T08:14:48.162Z,1.31
2023-01-18T08:17:15.215Z,1.26
2023-01-18T08:19:42.131Z,1.33
2023-01-18T08:22:10.014Z,1.35
2023-01-18T08:24:36.691Z,1.38
2023-01-18T08:27:03.587Z,1.47
2023-01-18T08:29:30.575Z,1.56
2023-01-18T08:32:00.147Z,1.63
2023-01-18T08:34:27.585Z,1.65
2023-01-18T08:36:54.963Z,1.70
2023-01-18T08:39:21.895Z,1.71
2023-01-18T08:41:49.597Z,1.82
2023-01-18T08:44:16.587Z,1.90
2023-01-18T08:46:43.698Z,1.98
2023-01-18T08:49:10.689Z,2.02
2023-01-18T08:51:37.766Z,2.07
2023-01-18T08:54:06.731Z,2.17
2023-01-18T08:56:33.896Z,2.30
2023-01-18T08:59:01.169Z,2.31
2023-01-18T09:01:28.570Z,2.37
2023-01-18T09:03:58.376Z,2.65
2023-01-18T09:06:26.525Z,2.89
2023-01-18T09:08:53.486Z,3.04
2023-01-18T09:11:20.394Z,3.47
2023-01-18T09:14:00.236Z,3.74
2023-01-18T09:16:28.100Z,3.96
2023-01-18T09:18:56.446Z,4.07
2023-01-18T09:21:23.614Z,4.01
2023-01-18T09:23:51.150Z,3.96
2023-01-18T09:26:20.581Z,3.92
2023-01-18T09:28:51.073Z,3.88
2023-01-18T09:31:20.081Z,4.06
2023-01-18T09:33:53.254Z,4.29
2023-01-18T09:36:23.919Z,4.55
2023-01-18T09:38:50.698Z,4.86
2023-01-18T09:41:33.468Z,4.86
2023-01-18T09:44:16.846Z,4.85
2023-01-18T09:46:44.809Z,4.76
2023-01-18T09:49:29.069Z,4.54
2023-01-18T09:52:07.979Z,4.30
2023-01-18T09:54:43.995Z,4.21
2023-01-18T09:57:41.979Z,4.03
2023-01-18T10:00:25.128Z,4.13
2023-01-18T10:02:55.875Z,4.28
2023-01-18T10:05:26.260Z,4.32
2023-01-18T10:08:16.283Z,4.03
2023-01-18T10:11:04.420Z,3.86
2023-01-18T10:13:38.188Z,3.60
2023-01-18T10:16:10.014Z,3.49
2023-01-18T10:18:45.781Z,3.71
2023-01-18T10:21:18.178Z,3.94
2023-01-18T10:23:47.514Z,3.97
2023-01-18T10:26:18.179Z,3.69
2023-01-18T10:28:48.938Z,3.59
2023-01-18T10:31:15.953Z,3.53
2023-01-18T10:33:43.682Z,3.39
2023-01-18T10:36:26.930Z,3.50
2023-01-18T10:38:55.497Z,3.92
2023-01-18T10:41:28.802Z,4.17
2023-01-18T10:43:55.828Z,4.32
2023-01-18T10:46:22.398Z,4.86
2023-01-18T10:48:52.948Z,5.18
2023-01-18T10:51:37.679Z,5.20
2023-01-18T10:54:29.157Z,5.05
2023-01-18T10:57:05.871Z,4.86
2023-01-18T10:59:37.489Z,4.87
2023-01-18T11:02:07.613Z,5.12
2023-01-18T11:04:34.543Z,5.22
2023-01-18T11:07:01.762Z,5.36
2023-01-18T11:09:34.565Z,5.51
2023-01-18T11:12:38.519Z,5.48
2023-01-18T11:15:14.565Z,5.13
2023-01-18T11:17:44.366Z,4.95
2023-01-18T11:20:16.268Z,4.72
2023-01-18T11:23:00.089Z,4.98
2023-01-18T11:25:49.729Z,5.41
2023-01-18T11:28:24.340Z,5.70
2023-01-18T11:30:54.216Z,5.85
2023-01-18T11:33:23.242Z,5.87
2023-01-18T11:36:00.203Z,5.74
2023-01-18T11:38:30.097Z,5.45
2023-01-18T11:41:16.108Z,5.15
2023-01-18T11:44:06.780Z,5.10
2023-01-18T11:46:46.728Z,5.17
2023-01-18T11:49:26.296Z,5.14
2023-01-18T11:52:12.612Z,4.93
2023-01-18T11:54:51.118Z,4.54
2023-01-18T11:57:18.189Z,4.32
2023-01-18T11:59:46.312Z,4.51
2023-01-18T12:02:58.519Z,4.54
2023-01-18T12:05:28.446Z,4.34
2023-01-18T12:08:17.353Z,4.21
2023-01-18T12:11:13.698Z,4.43
2023-01-18T12:14:05.298Z,4.82
2023-01-18T12:16:41.605Z,4.70
2023-01-18T12:19:27.665Z,4.79
2023-01-18T12:22:04.825Z,4.71
2023-01-18T12:24:55.097Z,4.80
2023-01-18T12:27:48.740Z,4.71
2023-01-18T12:30:30.622Z,4.66
2023-01-18T12:33:13.056Z,4.91
2023-01-18T12:35:56.728Z,5.22
2023-01-18T12:38:32.587Z,4.96
2023-01-18T12:41:12.020Z,4.37
2023-01-18T12:43:50.267Z,4.03
2023-01-18T12:46:19.349Z,4.29
2023-01-18T12:48:56.997Z,4.65
2023-01-18T12:51:26.342Z,4.67
2023-01-18T12:54:02.657Z,4.36
2023-01-18T12:56:33.202Z,4.30
2023-01-18T12:59:03.798Z,4.03
2023-01-18T13:01:35.059Z,4.28
2023-01-18T13:04:10.587Z,4.33
2023-01-18T13:06:38.630Z,4.26
2023-01-18T13:09:28.742Z,4.20
2023-01-18T13:11:58.625Z,4.18
2023-01-18T13:14:49.229Z,4.20
2023-01-18T13:17:30.525Z,4.46
2023-01-18T13:20:07.205Z,4.22
2023-01-18T13:23:12.048Z,4.11
2023-01-18T13:25:48.525Z,4.11
2023-01-18T13:28:25.172Z,3.77
2023-01-18T13:31:01.912Z,3.37
2023-01-18T13:33:56.182Z,3.19
2023-01-18T13:36:23.110Z,3.16
2023-01-18T13:38:53.836Z,2.97
2023-01-18T13:41:27.395Z,2.97
2023-01-18T13:44:25.682Z,2.88
2023-01-18T13:46:52.962Z,2.86
2023-01-18T13:49:38.788Z,2.89
2023-01-18T13:52:32.584Z,2.71
2023-01-18T13:55:04.112Z,2.96
2023-01-18T13:57:33.307Z,3.14
2023-01-18T14:00:01.349Z,3.09
2023-01-18T14:02:42.752Z,2.95
2023-01-18T14:05:25.520Z,3.25
2023-01-18T14:07:56.059Z,3.32
2023-01-18T14:10:37.107Z,3.20
2023-01-18T14:13:08.899Z,2.90
2023-01-18T14:15:41.956Z,2.67
2023-01-18T14:18:27.452Z,2.69
2023-01-18T14:21:22.280Z,2.87
2023-01-18T14:24:17.839Z,2.95
2023-01-18T14:26:47.005Z,2.88
2023-01-18T14:29:32.020Z,2.85
2023-01-18T14:31:59.256Z,2.85
2023-01-18T14:34:36.013Z,2.78
2023-01-18T14:37:04.028Z,2.69
2023-01-18T14:39:33.215Z,2.55
2023-01-18T14:42:04.034Z,2.47
2023-01-18T14:44:56.353Z,2.33
2023-01-18T14:47:30.938Z,2.00
2023-01-18T14:49:58.755Z,1.76
2023-01-18T14:52:29.487Z,1.68
2023-01-18T14:54:56.479Z,1.58
2023-01-18T14:57:24.353Z,1.47
2023-01-18T14:59:57.513Z,1.39
2023-01-18T15:02:29.510Z,1.38
2023-01-18T15:05:17.243Z,1.22
2023-01-18T15:07:46.464Z,1.07
2023-01-18T15:10:16.912Z,1.00
2023-01-18T15:12:47.121Z,0.93
2023-01-18T15:15:42.545Z,0.82
2023-01-18T15:18:14.954Z,0.67
2023-01-18T15:21:01.044Z,0.60
2023-01-18T15:23:28.895Z,0.59
2023-01-18T15:25:56.875Z,0.61
2023-01-18T15:28:30.138Z,0.49
2023-01-18T15:30:57.943Z,0.39
2023-01-18T15:33:25.983Z,0.24
2023-01-18T15:35:59.014Z,0.17
2023-01-18T15:38:26.277Z,0.08
2023-01-18T15:41:10.986Z,-0.06
2023-01-18T15:43:43.463Z,-0.17
2023-01-18T15:46:14.611Z,-0.16
2023-01-18T15:48:57.378Z,-0.20
2023-01-18T15:51:45.319Z,-0.18
2023-01-18T15:54:20.700Z,-0.29
2023-01-18T15:56:49.022Z,-0.45
2023-01-18T15:59:21.916Z,-0.58
2023-01-18T16:02:24.471Z,-0.62
2023-01-18T16:05:08.610Z,-0.67
2023-01-18T16:07:43.463Z,-0.68
2023-01-18T16:10:28.156Z,-0.63
2023-01-18T16:12:57.163Z,-0.61
2023-01-18T16:15:29.187Z,-0.60
2023-01-18T16:18:02.999Z,-0.63
2023-01-18T16:20:31.876Z,-0.70
2023-01-18T16:23:17.546Z,-0.72
2023-01-18T16:25:52.752Z,-0.76
2023-01-18T16:28:24.083Z,-0.75
2023-01-18T16:30:52.253Z,-0.75
2023-01-18T16:33:21.678Z,-0.75
2023-01-18T16:35:49.812Z,-0.73
2023-01-18T16:38:19.078Z,-0.70
2023-01-18T16:40:49.721Z,-0.60
2023-01-18T16:43:28.745Z,-0.49
2023-01-18T16:45:57.144Z,-0.56
2023-01-18T16:48:26.654Z,-0.61
2023-01-18T16:50:56.221Z,-0.61
2023-01-18T16:53:23.654Z,-0.59
2023-01-18T16:55:51.114Z,-0.50
2023-01-18T16:58:21.536Z,-0.49
2023-01-18T17:00:59.310Z,-0.19
2023-01-18T17:03:27.764Z,0.26
2023-01-18T17:05:55.438Z,0.63
2023-01-18T17:08:22.849Z,0.93
2023-01-18T17:10:51.230Z,1.17
2023-01-18T17:13:18.183Z,1.38
2023-01-18T17:15:45.720Z,1.55
2023-01-18T17:18:17.883Z,1.71
2023-01-18T17:20:44.892Z,1.84
2023-01-18T17:23:12.077Z,1.95
2023-01-18T17:25:39.518Z,2.04
2023-01-18T17:28:06.580Z,2.15
2023-01-18T17:30:34.671Z,2.23
2023-01-18T17:33:01.868Z,2.31
2023-01-18T17:35:29.151Z,2.38
2023-01-18T17:38:04.687Z,2.44
2023-01-18T17:40:42.779Z,2.51
2023-01-18T17:43:36.535Z,2.56
2023-01-18T17:46:05.422Z,2.61
2023-01-18T17:48:32.449Z,2.66
2023-01-18T17:50:59.243Z,2.71
2023-01-18T17:59:18.111Z,2.83
2023-01-18T18:01:46.004Z,2.87
2023-01-18T18:04:13.776Z,2.90
2023-01-18T18:06:49.731Z,2.92
2023-01-18T18:09:21.045Z,2.95
2023-01-18T18:11:48.099Z,2.97
2023-01-18T18:14:14.858Z,3.00
2023-01-18T18:16:43.847Z,3.02
2023-01-18T18:33:43.765Z,3.14
2023-01-18T18:36:10.741Z,3.14
2023-01-18T18:38:38.649Z,3.18
2023-01-18T18:41:06.909Z,3.18
2023-01-18T18:43:33.657Z,3.22
2023-01-18T18:46:01.342Z,3.25
2023-01-18T18:48:28.151Z,3.24
2023-01-18T18:50:55.651Z,3.25
2023-01-18T18:53:29.629Z,3.27
2023-01-18T18:56:06.948Z,3.27
2023-01-18T18:58:34.859Z,3.29
2023-01-18T19:01:02.641Z,3.29
2023-01-18T19:03:29.695Z,3.29
2023-01-18T19:05:56.584Z,3.31
2023-01-18T19:08:23.873Z,3.30
2023-01-18T19:10:51.863Z,3.29
2023-01-18T19:13:19.249Z,3.29
2023-01-18T19:15:47.120Z,3.29
2023-01-18T19:18:14.500Z,3.29
2023-01-18T19:20:41.519Z,3.31
2023-01-18T19:23:09.154Z,3.31
2023-01-18T19:25:38.422Z,3.32
2023-01-18T19:28:05.781Z,3.31
2023-01-18T19:30:33.332Z,3.31
2023-01-18T19:33:03.221Z,3.31
2023-01-18T19:35:31.143Z,3.33
2023-01-18T19:38:00.942Z,3.33
2023-01-18T19:40:27.864Z,3.33
2023-01-18T19:42:56.032Z,3.33
2023-01-18T19:45:28.147Z,3.32
2023-01-18T19:47:57.639Z,3.32
2023-01-18T19:50:25.289Z,3.33
2023-01-18T19:52:52.921Z,3.32
2023-01-18T19:55:21.724Z,3.33
2023-01-18T19:57:49.353Z,3.33
2023-01-18T20:00:17.355Z,3.32
2023-01-18T20:02:44.463Z,3.32
2023-01-18T20:05:11.448Z,3.33
2023-01-18T20:07:39.605Z,3.31
2023-01-18T20:10:07.548Z,3.29
2023-01-18T20:12:34.626Z,3.30
2023-01-18T20:15:01.988Z,3.30
2023-01-18T20:17:28.983Z,3.31
2023-01-18T20:19:55.721Z,3.31
2023-01-18T20:22:23.298Z,3.28
2023-01-18T20:27:37.889Z,3.30
2023-01-18T20:30:06.399Z,3.30
2023-01-18T20:32:34.498Z,3.32
2023-01-18T20:35:01.342Z,3.33
2023-01-18T20:37:28.877Z,3.33
2023-01-18T20:39:56.206Z,3.35
2023-01-18T20:42:23.982Z,3.33
2023-01-18T20:44:53.752Z,3.35
2023-01-18T20:47:20.659Z,3.36
2023-01-18T20:49:47.815Z,3.36
2023-01-18T20:52:14.993Z,3.35
2023-01-18T20:54:41.871Z,3.35
2023-01-18T20:57:12.105Z,3.35
2023-01-18T20:59:39.696Z,3.35
2023-01-18T21:02:06.977Z,3.36
2023-01-18T21:04:33.994Z,3.35
2023-01-18T21:07:00.746Z,3.35
2023-01-18T21:09:27.877Z,3.34
2023-01-18T21:11:54.737Z,3.33
2023-01-18T21:14:21.839Z,3.33
2023-01-18T21:16:48.878Z,3.31
2023-01-18T21:19:16.094Z,3.30
2023-01-18T21:21:42.807Z,3.31
2023-01-18T21:24:09.747Z,3.30
2023-01-18T21:26:38.138Z,3.29
2023-01-18T21:29:05.968Z,3.29
2023-01-18T21:31:32.721Z,3.28
2023-01-18T21:33:59.756Z,3.27
2023-01-18T21:36:26.639Z,3.25
2023-01-18T21:38:53.656Z,3.25
2023-01-18T21:41:38.926Z,3.24
2023-01-18T21:44:24.351Z,3.23
2023-01-18T21:46:52.341Z,3.22
2023-01-18T21:52:44.527Z,3.20
2023-01-18T21:55:11.768Z,3.18
2023-01-18T21:57:38.758Z,3.17
2023-01-18T22:00:06.282Z,3.14
2023-01-18T22:02:34.202Z,3.14
2023-01-18T22:05:02.036Z,3.11
2023-01-18T22:07:30.289Z,3.13
2023-01-18T22:10:06.566Z,3.12
2023-01-18T22:12:36.087Z,3.13
2023-01-18T22:15:04.782Z,3.11
2023-01-18T22:17:31.719Z,3.10
2023-01-18T22:19:58.609Z,3.08
2023-01-18T22:22:25.578Z,3.08
2023-01-18T22:24:52.369Z,3.08
2023-01-18T22:27:19.155Z,3.07
2023-01-18T22:29:45.995Z,3.07
2023-01-18T22:32:13.115Z,3.06
2023-01-18T22:34:40.216Z,3.04
2023-01-18T22:37:07.370Z,3.02
2023-01-18T22:39:34.068Z,3.02
2023-01-18T22:42:01.213Z,3.03
2023-01-18T22:44:28.046Z,3.02
2023-01-18T22:46:54.976Z,3.05
2023-01-18T22:49:22.096Z,3.03
2023-01-18T22:51:49.047Z,3.02
2023-01-18T22:54:16.021Z,2.98
2023-01-18T22:56:43.104Z,2.95
2023-01-18T22:59:09.963Z,2.94
2023-01-18T23:01:36.915Z,2.92
2023-01-18T23:04:04.606Z,2.92
2023-01-18T23:06:48.138Z,2.91
2023-01-18T23:09:17.719Z,2.91
2023-01-18T23:11:45.455Z,2.91
2023-01-18T23:14:30.815Z,2.89
2023-01-18T23:17:16.368Z,2.89
2023-01-18T23:19:43.123Z,2.88
2023-01-18T23:22:10.664Z,2.87
2023-01-18T23:24:37.980Z,2.86
2023-01-18T23:27:07.079Z,2.87
2023-01-18T23:29:34.413Z,2.86
2023-01-18T23:32:01.600Z,2.86
2023-01-18T23:34:28.557Z,2.86
2023-01-18T23:36:55.555Z,2.87
2023-01-18T23:39:40.966Z,2.88
2023-01-18T23:42:27.089Z,2.88
2023-01-18T23:45:12.375Z,2.85
2023-01-18T23:47:58.371Z,2.85
2023-01-18T23:50:44.129Z,2.83
2023-01-18T23:53:33.013Z,2.84
2023-01-18T23:56:00.259Z,2.85
2023-01-18T23:58:28.029Z,2.84
